Time,TemperatureF,DewpointF,PressureIn,WindDirection,WindDirectionDegrees,WindSpeedMPH,WindSpeedGustMPH,Humidity,HourlyPrecipIn,Conditions,Clouds,dailyrainin,SoftwareType,DateUTC
2013-02-01 00:00:00,16.1,11.0,29.91,West,270,1.0,7.0,80,0.00,,,0.00,VWS V14.01,2013-02-01 05:00:00,
2013-02-01 00:30:00,15.9,10.3,29.92,West,270,1.0,11.0,78,0.00,,,0.00,VWS V14.01,2013-02-01 05:30:00,
2013-02-01 01:00:00,15.5,10.2,29.93,West,270,0.0,7.0,79,0.00,,,0.00,VWS V14.01,2013-02-01 06:00:00,
2013-02-01 01:30:00,15.3,10.0,29.94,WSW,248,1.0,7.0,79,0.00,,,0.00,VWS V14.01,2013-02-01 06:30:00,
2013-02-01 02:00:00,15.0,10.0,29.96,West,270,0.0,4.0,80,0.00,,,0.00,VWS V14.01,2013-02-01 07:00:00,
2013-02-01 02:30:00,15.5,10.7,29.97,West,270,1.0,6.0,81,0.00,,,0.00,VWS V14.01,2013-02-01 07:30:00,
2013-02-01 03:00:00,15.6,10.5,29.99,West,270,1.0,6.0,80,0.00,,,0.00,VWS V14.01,2013-02-01 08:00:00,
2013-02-01 03:30:00,15.7,10.6,30.00,West,270,1.0,10.0,80,0.00,,,0.00,VWS V14.01,2013-02-01 08:30:00,
2013-02-01 04:00:00,15.6,10.3,30.01,West,270,1.0,4.0,79,0.00,,,0.00,VWS V14.01,2013-02-01 09:00:00,
2013-02-01 04:30:00,15.3,9.7,30.03,West,270,1.0,11.0,78,0.00,,,0.00,VWS V14.01,2013-02-01 09:30:00,
2013-02-01 05:00:00,14.6,9.0,30.05,West,270,1.0,8.0,78,0.00,,,0.00,VWS V14.01,2013-02-01 10:00:00,
2013-02-01 05:30:00,13.9,8.3,30.07,West,270,0.0,9.0,78,0.00,,,0.00,VWS V14.01,2013-02-01 10:30:00,
2013-02-01 06:00:00,13.4,8.1,30.09,West,270,0.0,6.0,79,0.00,,,0.00,VWS V14.01,2013-02-01 11:00:00,
2013-02-01 06:30:00,13.7,8.7,30.10,West,270,0.0,7.0,80,0.00,,,0.00,VWS V14.01,2013-02-01 11:30:00,
2013-02-01 07:00:00,13.7,8.1,30.12,WSW,248,0.0,7.0,78,0.00,,,0.00,VWS V14.01,2013-02-01 12:00:00,
2013-02-01 07:30:00,13.6,8.0,30.13,WSW,248,0.0,5.0,78,0.00,,,0.00,VWS V14.01,2013-02-01 12:30:00,
2013-02-01 08:00:00,14.3,8.1,30.15,West,270,1.0,12.0,76,0.00,,,0.00,VWS V14.01,2013-02-01 13:00:00,
2013-02-01 08:30:00,15.2,9.6,30.16,West,270,1.0,12.0,78,0.00,,,0.00,VWS V14.01,2013-02-01 13:30:00,
2013-02-01 09:00:00,15.5,11.0,30.17,WSW,248,0.0,7.0,82,0.00,,,0.00,VWS V14.01,2013-02-01 14:00:00,
2013-02-01 09:30:00,15.5,11.0,30.19,West,270,0.0,9.0,82,0.00,,,0.00,VWS V14.01,2013-02-01 14:30:00,
2013-02-01 10:00:00,16.7,11.6,30.20,West,270,1.0,9.0,80,0.00,,,0.00,VWS V14.01,2013-02-01 15:00:00,
2013-02-01 10:30:00,15.4,10.4,30.22,West,270,1.0,7.0,80,0.00,,,0.00,VWS V14.01,2013-02-01 15:30:00,
2013-02-01 11:00:00,15.9,11.7,30.22,SSW,202,0.0,3.0,83,0.00,,,0.00,VWS V14.01,2013-02-01 16:00:00,
2013-02-01 11:30:00,16.3,11.8,30.23,West,270,1.0,7.0,82,0.00,,,0.00,VWS V14.01,2013-02-01 16:30:00,
2013-02-01 12:00:00,18.3,12.6,30.22,SW,225,1.0,7.0,78,0.00,,,0.00,VWS V14.01,2013-02-01 17:00:00,
2013-02-01 12:30:00,17.9,11.3,30.22,SW,225,1.0,6.0,75,0.00,,,0.00,VWS V14.01,2013-02-01 17:30:00,
2013-02-01 13:00:00,17.9,10.7,30.22,West,270,1.0,9.0,73,0.00,,,0.00,VWS V14.01,2013-02-01 18:00:00,
2013-02-01 13:30:00,17.2,10.6,30.23,SSW,202,1.0,10.0,75,0.00,,,0.00,VWS V14.01,2013-02-01 18:30:00,
2013-02-01 14:00:00,17.0,10.2,30.23,SW,225,1.0,7.0,74,0.00,,,0.00,VWS V14.01,2013-02-01 19:00:00,
2013-02-01 14:30:00,17.0,8.9,30.24,SW,225,1.0,12.0,70,0.00,,,0.00,VWS V14.01,2013-02-01 19:30:00,
2013-02-01 15:00:00,16.6,8.9,30.24,SSW,202,1.0,6.0,71,0.00,,,0.00,VWS V14.01,2013-02-01 20:00:00,
2013-02-01 15:30:00,15.9,7.9,30.25,SSW,202,1.0,7.0,70,0.00,,,0.00,VWS V14.01,2013-02-01 20:30:00,
2013-02-01 16:00:00,14.9,6.3,30.26,SSW,202,2.0,10.0,68,0.00,,,0.00,VWS V14.01,2013-02-01 21:00:00,
2013-02-01 16:30:00,14.2,5.9,30.26,South,180,2.0,5.0,69,0.00,,,0.00,VWS V14.01,2013-02-01 21:30:00,
2013-02-01 17:00:00,13.2,4.3,30.26,SSW,202,1.0,7.0,67,0.00,,,0.00,VWS V14.01,2013-02-01 22:00:00,
2013-02-01 17:30:00,11.9,3.4,30.27,SSW,202,1.0,5.0,68,0.00,,,0.00,VWS V14.01,2013-02-01 22:30:00,
2013-02-01 18:00:00,10.2,2.4,30.30,SW,225,1.0,4.0,70,0.00,,,0.00,VWS V14.01,2013-02-01 23:00:00,
2013-02-01 18:30:00,11.8,4.2,30.28,South,180,1.0,4.0,71,0.00,,,0.00,VWS V14.01,2013-02-01 23:30:00,
2013-02-01 19:00:00,10.2,2.4,30.30,SW,225,1.0,4.0,70,0.00,,,0.00,VWS V14.01,2013-02-02 00:00:00,
2013-02-01 19:30:00,9.3,1.8,30.30,South,180,0.0,3.0,71,0.00,,,0.00,VWS V14.01,2013-02-02 00:30:00,
2013-02-01 20:00:00,8.8,1.6,30.30,South,180,0.0,4.0,72,0.00,,,0.00,VWS V14.01,2013-02-02 01:00:00,
2013-02-01 20:30:00,8.3,2.0,30.28,South,183,0.0,1.0,75,0.00,,,0.00,VWS V14.01,2013-02-02 01:30:00,
2013-02-01 20:52:00,8.5,1.6,30.28,South,183,0.0,0.0,73,0.00,,,0.00,VWS V14.01,2013-02-02 01:52:00,
2013-02-01 20:53:00,8.5,1.6,30.28,South,183,0.0,0.0,73,0.00,,,0.00,VWS V14.01,2013-02-02 01:53:00,
2013-02-01 20:54:00,8.5,1.6,30.28,South,183,1.0,1.0,73,0.00,,,0.00,VWS V14.01,2013-02-02 01:54:00,
2013-02-01 20:55:00,8.5,1.6,30.28,South,183,1.0,2.0,73,0.00,,,0.00,VWS V14.01,2013-02-02 01:55:00,
2013-02-01 20:56:00,8.5,1.6,30.28,South,183,2.0,2.0,73,0.00,,,0.00,VWS V14.01,2013-02-02 01:56:00,
2013-02-01 20:57:00,8.5,1.6,30.28,South,183,0.0,2.0,73,0.00,,,0.00,VWS V14.01,2013-02-02 01:57:00,
2013-02-01 20:58:00,8.5,1.9,30.28,South,183,0.0,2.0,74,0.00,,,0.00,VWS V14.01,2013-02-02 01:58:00,
2013-02-01 20:59:00,8.5,1.6,30.28,South,183,1.0,2.0,73,0.00,,,0.00,VWS V14.01,2013-02-02 01:59:00,
2013-02-01 21:00:00,8.5,1.6,30.28,South,183,0.0,2.0,73,0.00,,,0.00,VWS V14.01,2013-02-02 02:00:00,
2013-02-01 21:01:00,8.5,1.6,30.27,South,183,1.0,1.0,73,0.00,,,0.00,VWS V14.01,2013-02-02 02:01:00,
2013-02-01 21:02:00,8.5,1.6,30.27,South,183,0.0,1.0,73,0.00,,,0.00,VWS V14.01,2013-02-02 02:02:00,
2013-02-01 21:03:00,8.5,1.6,30.27,South,183,0.0,1.0,73,0.00,,,0.00,VWS V14.01,2013-02-02 02:03:00,
2013-02-01 21:04:00,8.5,1.6,30.27,South,183,0.0,1.0,73,0.00,,,0.00,VWS V14.01,2013-02-02 02:04:00,
2013-02-01 21:05:00,8.5,1.9,30.27,South,183,0.0,1.0,74,0.00,,,0.00,VWS V14.01,2013-02-02 02:05:00,
2013-02-01 21:06:00,8.5,1.9,30.27,South,183,0.0,1.0,74,0.00,,,0.00,VWS V14.01,2013-02-02 02:06:00,
2013-02-01 21:07:00,8.5,1.9,30.27,South,183,0.0,1.0,74,0.00,,,0.00,VWS V14.01,2013-02-02 02:07:00,
2013-02-01 21:08:00,8.5,1.9,30.27,South,183,0.0,1.0,74,0.00,,,0.00,VWS V14.01,2013-02-02 02:08:00,
2013-02-01 21:09:00,8.5,1.9,30.27,South,183,0.0,1.0,74,0.00,,,0.00,VWS V14.01,2013-02-02 02:09:00,
2013-02-01 21:10:00,8.4,1.8,30.27,South,183,0.0,1.0,74,0.00,,,0.00,VWS V14.01,2013-02-02 02:10:00,
2013-02-01 21:11:00,8.4,1.8,30.27,South,183,0.0,1.0,74,0.00,,,0.00,VWS V14.01,2013-02-02 02:11:00,
2013-02-01 21:12:00,8.5,1.9,30.27,South,183,1.0,1.0,74,0.00,,,0.00,VWS V14.01,2013-02-02 02:12:00,
2013-02-01 21:13:00,8.4,1.8,30.27,South,183,1.0,1.0,74,0.00,,,0.00,VWS V14.01,2013-02-02 02:13:00,
2013-02-01 21:14:00,8.5,1.9,30.27,South,183,0.0,1.0,74,0.00,,,0.00,VWS V14.01,2013-02-02 02:14:00,
2013-02-01 21:15:00,8.4,1.8,30.27,South,183,0.0,1.0,74,0.00,,,0.00,VWS V14.01,2013-02-02 02:15:00,
2013-02-01 21:16:00,8.4,1.8,30.28,South,183,0.0,1.0,74,0.00,,,0.00,VWS V14.01,2013-02-02 02:16:00,
2013-02-01 21:17:00,8.4,1.8,30.28,South,183,0.0,1.0,74,0.00,,,0.00,VWS V14.01,2013-02-02 02:17:00,
2013-02-01 21:18:00,8.4,1.8,30.28,South,183,0.0,1.0,74,0.00,,,0.00,VWS V14.01,2013-02-02 02:18:00,
2013-02-01 21:19:00,8.4,1.8,30.28,South,183,0.0,1.0,74,0.00,,,0.00,VWS V14.01,2013-02-02 02:19:00,
2013-02-01 21:20:00,8.4,1.8,30.28,South,183,0.0,1.0,74,0.00,,,0.00,VWS V14.01,2013-02-02 02:20:00,
2013-02-01 21:21:00,8.4,1.8,30.28,South,183,0.0,1.0,74,0.00,,,0.00,VWS V14.01,2013-02-02 02:21:00,
2013-02-01 21:22:00,8.4,1.8,30.28,South,183,0.0,1.0,74,0.00,,,0.00,VWS V14.01,2013-02-02 02:22:00,
2013-02-01 21:23:00,8.3,1.7,30.28,South,183,0.0,1.0,74,0.00,,,0.00,VWS V14.01,2013-02-02 02:23:00,
2013-02-01 21:24:00,8.3,1.7,30.28,South,183,0.0,1.0,74,0.00,,,0.00,VWS V14.01,2013-02-02 02:24:00,
2013-02-01 21:25:00,8.3,1.7,30.28,South,183,0.0,1.0,74,0.00,,,0.00,VWS V14.01,2013-02-02 02:25:00,
2013-02-01 21:26:00,8.3,2.0,30.28,South,183,0.0,1.0,75,0.00,,,0.00,VWS V14.01,2013-02-02 02:26:00,
2013-02-01 21:27:00,8.3,2.0,30.28,South,183,0.0,1.0,75,0.00,,,0.00,VWS V14.01,2013-02-02 02:27:00,
2013-02-01 21:28:00,8.3,2.0,30.28,South,183,0.0,1.0,75,0.00,,,0.00,VWS V14.01,2013-02-02 02:28:00,
2013-02-01 21:29:00,8.3,2.0,30.28,South,183,0.0,1.0,75,0.00,,,0.00,VWS V14.01,2013-02-02 02:29:00,
2013-02-01 21:30:00,8.3,2.0,30.28,South,183,0.0,1.0,75,0.00,,,0.00,VWS V14.01,2013-02-02 02:30:00,
2013-02-01 21:31:00,8.3,2.0,30.28,South,183,0.0,0.0,75,0.00,,,0.00,VWS V14.01,2013-02-02 02:31:00,
2013-02-01 21:32:00,8.3,2.0,30.28,South,183,0.0,0.0,75,0.00,,,0.00,VWS V14.01,2013-02-02 02:32:00,
2013-02-01 21:33:00,8.3,2.0,30.28,South,183,0.0,0.0,75,0.00,,,0.00,VWS V14.01,2013-02-02 02:33:00,
2013-02-01 21:34:00,8.3,2.0,30.28,South,183,0.0,0.0,75,0.00,,,0.00,VWS V14.01,2013-02-02 02:34:00,
2013-02-01 21:35:00,8.3,2.0,30.28,South,183,0.0,0.0,75,0.00,,,0.00,VWS V14.01,2013-02-02 02:35:00,
2013-02-01 21:36:00,8.3,2.0,30.28,South,183,0.0,1.0,75,0.00,,,0.00,VWS V14.01,2013-02-02 02:36:00,
2013-02-01 21:37:00,8.3,2.0,30.28,South,183,0.0,1.0,75,0.00,,,0.00,VWS V14.01,2013-02-02 02:37:00,
2013-02-01 21:38:00,8.3,2.0,30.28,South,183,0.0,1.0,75,0.00,,,0.00,VWS V14.01,2013-02-02 02:38:00,
2013-02-01 21:39:00,8.3,2.0,30.28,South,183,0.0,1.0,75,0.00,,,0.00,VWS V14.01,2013-02-02 02:39:00,
2013-02-01 21:40:00,8.3,2.0,30.28,South,183,0.0,1.0,75,0.00,,,0.00,VWS V14.01,2013-02-02 02:40:00,
2013-02-01 21:41:00,8.3,2.0,30.28,South,183,0.0,1.0,75,0.00,,,0.00,VWS V14.01,2013-02-02 02:41:00,
2013-02-01 21:42:00,8.3,2.0,30.28,South,183,0.0,1.0,75,0.00,,,0.00,VWS V14.01,2013-02-02 02:42:00,
2013-02-01 21:43:00,8.3,2.0,30.27,South,183,0.0,1.0,75,0.00,,,0.00,VWS V14.01,2013-02-02 02:43:00,
2013-02-01 21:44:00,8.3,2.0,30.27,South,183,0.0,1.0,75,0.00,,,0.00,VWS V14.01,2013-02-02 02:44:00,
2013-02-01 21:45:00,8.3,2.0,30.27,South,183,0.0,1.0,75,0.00,,,0.00,VWS V14.01,2013-02-02 02:45:00,
2013-02-01 21:46:00,8.3,2.0,30.27,South,183,0.0,1.0,75,0.00,,,0.00,VWS V14.01,2013-02-02 02:46:00,
2013-02-01 21:47:00,8.3,2.0,30.27,South,183,0.0,1.0,75,0.00,,,0.00,VWS V14.01,2013-02-02 02:47:00,
2013-02-01 21:48:00,8.3,2.0,30.27,South,183,0.0,1.0,75,0.00,,,0.00,VWS V14.01,2013-02-02 02:48:00,
2013-02-01 21:49:00,8.3,2.0,30.27,South,183,0.0,1.0,75,0.00,,,0.00,VWS V14.01,2013-02-02 02:49:00,
2013-02-01 21:50:00,8.3,2.0,30.27,South,183,0.0,1.0,75,0.00,,,0.00,VWS V14.01,2013-02-02 02:50:00,
2013-02-01 21:51:00,8.4,2.1,30.27,South,183,0.0,1.0,75,0.00,,,0.00,VWS V14.01,2013-02-02 02:51:00,
2013-02-01 21:52:00,8.4,2.1,30.27,South,183,0.0,1.0,75,0.00,,,0.00,VWS V14.01,2013-02-02 02:52:00,
2013-02-01 21:53:00,8.4,2.1,30.27,South,183,0.0,1.0,75,0.00,,,0.00,VWS V14.01,2013-02-02 02:53:00,
2013-02-01 21:54:00,8.4,2.1,30.27,South,183,0.0,1.0,75,0.00,,,0.00,VWS V14.01,2013-02-02 02:54:00,
2013-02-01 21:55:00,8.5,2.5,30.27,South,183,0.0,1.0,76,0.00,,,0.00,VWS V14.01,2013-02-02 02:55:00,
2013-02-01 21:56:00,8.5,2.5,30.27,South,183,0.0,1.0,76,0.00,,,0.00,VWS V14.01,2013-02-02 02:56:00,
2013-02-01 21:57:00,8.5,2.2,30.27,South,183,0.0,1.0,75,0.00,,,0.00,VWS V14.01,2013-02-02 02:57:00,
2013-02-01 21:58:00,8.5,2.5,30.27,South,183,0.0,1.0,76,0.00,,,0.00,VWS V14.01,2013-02-02 02:58:00,
2013-02-01 21:59:00,8.6,2.6,30.27,South,183,0.0,1.0,76,0.00,,,0.00,VWS V14.01,2013-02-02 02:59:00,
2013-02-01 22:00:00,8.6,2.6,30.27,South,183,0.0,1.0,76,0.00,,,0.00,VWS V14.01,2013-02-02 03:00:00,
2013-02-01 22:01:00,8.6,2.6,30.27,South,183,0.0,0.0,76,0.00,,,0.00,VWS V14.01,2013-02-02 03:01:00,
2013-02-01 22:02:00,8.6,2.6,30.27,South,183,0.0,0.0,76,0.00,,,0.00,VWS V14.01,2013-02-02 03:02:00,
2013-02-01 22:03:00,8.7,2.7,30.27,South,183,0.0,0.0,76,0.00,,,0.00,VWS V14.01,2013-02-02 03:03:00,
2013-02-01 22:04:00,8.7,2.7,30.27,South,183,1.0,1.0,76,0.00,,,0.00,VWS V14.01,2013-02-02 03:04:00,
2013-02-01 22:05:00,8.7,2.7,30.27,South,183,0.0,1.0,76,0.00,,,0.00,VWS V14.01,2013-02-02 03:05:00,
2013-02-01 22:06:00,8.8,2.8,30.27,South,183,0.0,1.0,76,0.00,,,0.00,VWS V14.01,2013-02-02 03:06:00,
2013-02-01 22:07:00,8.8,2.8,30.27,South,183,1.0,1.0,76,0.00,,,0.00,VWS V14.01,2013-02-02 03:07:00,
2013-02-01 22:08:00,8.8,2.8,30.27,South,183,0.0,1.0,76,0.00,,,0.00,VWS V14.01,2013-02-02 03:08:00,
2013-02-01 22:09:00,8.9,2.9,30.27,South,183,0.0,1.0,76,0.00,,,0.00,VWS V14.01,2013-02-02 03:09:00,
2013-02-01 22:10:00,8.9,2.9,30.27,South,183,0.0,1.0,76,0.00,,,0.00,VWS V14.01,2013-02-02 03:10:00,
2013-02-01 22:11:00,8.9,2.9,30.27,South,183,0.0,1.0,76,0.00,,,0.00,VWS V14.01,2013-02-02 03:11:00,
2013-02-01 22:12:00,9.0,3.0,30.27,South,183,1.0,1.0,76,0.00,,,0.00,VWS V14.01,2013-02-02 03:12:00,
2013-02-01 22:13:00,9.0,3.0,30.27,South,183,0.0,2.0,76,0.00,,,0.00,VWS V14.01,2013-02-02 03:13:00,
2013-02-01 22:14:00,9.0,3.0,30.27,South,183,0.0,2.0,76,0.00,,,0.00,VWS V14.01,2013-02-02 03:14:00,
2013-02-01 22:15:00,9.1,3.1,30.27,South,183,0.0,2.0,76,0.00,,,0.00,VWS V14.01,2013-02-02 03:15:00,
2013-02-01 22:16:00,9.1,3.1,30.27,South,183,0.0,2.0,76,0.00,,,0.00,VWS V14.01,2013-02-02 03:16:00,
2013-02-01 22:17:00,9.1,3.1,30.27,South,183,1.0,2.0,76,0.00,,,0.00,VWS V14.01,2013-02-02 03:17:00,
2013-02-01 22:18:00,9.2,3.2,30.26,South,183,0.0,2.0,76,0.00,,,0.00,VWS V14.01,2013-02-02 03:18:00,
2013-02-01 22:19:00,9.2,3.2,30.27,South,183,0.0,2.0,76,0.00,,,0.00,VWS V14.01,2013-02-02 03:19:00,
2013-02-01 22:20:00,9.2,3.2,30.27,South,182,0.0,2.0,76,0.00,,,0.00,VWS V14.01,2013-02-02 03:20:00,
2013-02-01 22:21:00,9.3,3.3,30.27,South,182,0.0,2.0,76,0.00,,,0.00,VWS V14.01,2013-02-02 03:21:00,
2013-02-01 22:22:00,9.3,3.3,30.27,South,182,0.0,2.0,76,0.00,,,0.00,VWS V14.01,2013-02-02 03:22:00,
2013-02-01 22:23:00,9.4,3.4,30.27,South,182,0.0,2.0,76,0.00,,,0.00,VWS V14.01,2013-02-02 03:23:00,
2013-02-01 22:24:00,9.4,3.4,30.26,South,182,0.0,2.0,76,0.00,,,0.00,VWS V14.01,2013-02-02 03:24:00,
2013-02-01 22:25:00,9.5,3.5,30.26,South,182,1.0,2.0,76,0.00,,,0.00,VWS V14.01,2013-02-02 03:25:00,
2013-02-01 22:26:00,9.5,3.5,30.26,South,182,1.0,2.0,76,0.00,,,0.00,VWS V14.01,2013-02-02 03:26:00,
2013-02-01 22:27:00,9.6,3.6,30.26,South,182,0.0,2.0,76,0.00,,,0.00,VWS V14.01,2013-02-02 03:27:00,
2013-02-01 22:28:00,9.6,3.6,30.26,South,182,1.0,2.0,76,0.00,,,0.00,VWS V14.01,2013-02-02 03:28:00,
2013-02-01 22:29:00,9.7,3.7,30.26,South,182,1.0,2.0,76,0.00,,,0.00,VWS V14.01,2013-02-02 03:29:00,
2013-02-01 22:30:00,9.8,3.8,30.26,South,182,0.0,2.0,76,0.00,,,0.00,VWS V14.01,2013-02-02 03:30:00,
2013-02-01 22:31:00,9.8,3.8,30.26,South,182,0.0,2.0,76,0.00,,,0.00,VWS V14.01,2013-02-02 03:31:00,
2013-02-01 22:32:00,9.9,3.9,30.26,South,182,0.0,2.0,76,0.00,,,0.00,VWS V14.01,2013-02-02 03:32:00,
2013-02-01 22:33:00,9.9,3.9,30.26,South,182,2.0,2.0,76,0.00,,,0.00,VWS V14.01,2013-02-02 03:33:00,
2013-02-01 22:34:00,9.9,3.9,30.25,South,182,1.0,2.0,76,0.00,,,0.00,VWS V14.01,2013-02-02 03:34:00,
2013-02-01 22:35:00,9.9,3.9,30.25,South,182,1.0,2.0,76,0.00,,,0.00,VWS V14.01,2013-02-02 03:35:00,
2013-02-01 22:36:00,9.9,3.9,30.25,South,182,0.0,2.0,76,0.00,,,0.00,VWS V14.01,2013-02-02 03:36:00,
2013-02-01 22:37:00,9.9,3.9,30.25,South,182,1.0,2.0,76,0.00,,,0.00,VWS V14.01,2013-02-02 03:37:00,
2013-02-01 22:38:00,9.9,3.9,30.25,South,182,0.0,2.0,76,0.00,,,0.00,VWS V14.01,2013-02-02 03:38:00,
2013-02-01 22:39:00,10.0,4.0,30.25,South,182,2.0,3.0,76,0.00,,,0.00,VWS V14.01,2013-02-02 03:39:00,
2013-02-01 22:40:00,10.0,4.0,30.25,South,182,0.0,3.0,76,0.00,,,0.00,VWS V14.01,2013-02-02 03:40:00,
2013-02-01 22:41:00,10.1,4.1,30.25,South,182,0.0,3.0,76,0.00,,,0.00,VWS V14.01,2013-02-02 03:41:00,
2013-02-01 22:42:00,10.1,4.1,30.25,South,182,0.0,3.0,76,0.00,,,0.00,VWS V14.01,2013-02-02 03:42:00,
2013-02-01 22:43:00,10.2,4.2,30.25,South,182,1.0,3.0,76,0.00,,,0.00,VWS V14.01,2013-02-02 03:43:00,
2013-02-01 22:44:00,10.2,4.2,30.25,South,182,1.0,3.0,76,0.00,,,0.00,VWS V14.01,2013-02-02 03:44:00,
2013-02-01 22:45:00,10.2,4.2,30.26,South,182,0.0,3.0,76,0.00,,,0.00,VWS V14.01,2013-02-02 03:45:00,
2013-02-01 22:46:00,10.3,4.2,30.26,South,182,0.0,3.0,76,0.00,,,0.00,VWS V14.01,2013-02-02 03:46:00,
2013-02-01 22:47:00,10.3,4.2,30.26,South,182,2.0,3.0,76,0.00,,,0.00,VWS V14.01,2013-02-02 03:47:00,
2013-02-01 22:48:00,10.3,4.0,30.25,South,182,0.0,3.0,75,0.00,,,0.00,VWS V14.01,2013-02-02 03:48:00,
2013-02-01 22:49:00,10.3,4.0,30.25,South,182,1.0,3.0,75,0.00,,,0.00,VWS V14.01,2013-02-02 03:49:00,
2013-02-01 22:50:00,10.4,4.1,30.25,South,182,1.0,3.0,75,0.00,,,0.00,VWS V14.01,2013-02-02 03:50:00,
2013-02-01 22:51:00,10.4,4.1,30.25,South,172,0.0,3.0,75,0.00,,,0.00,VWS V14.01,2013-02-02 03:51:00,
2013-02-01 22:52:00,10.4,4.1,30.25,South,172,0.0,3.0,75,0.00,,,0.00,VWS V14.01,2013-02-02 03:52:00,
2013-02-01 22:53:00,10.4,4.1,30.25,South,172,0.0,3.0,75,0.00,,,0.00,VWS V14.01,2013-02-02 03:53:00,
2013-02-01 22:54:00,10.5,4.2,30.25,South,172,0.0,3.0,75,0.00,,,0.00,VWS V14.01,2013-02-02 03:54:00,
2013-02-01 22:55:00,10.5,4.2,30.25,South,172,1.0,3.0,75,0.00,,,0.00,VWS V14.01,2013-02-02 03:55:00,
2013-02-01 22:56:00,10.5,4.2,30.25,South,173,3.0,3.0,75,0.00,,,0.00,VWS V14.01,2013-02-02 03:56:00,
2013-02-01 22:57:00,10.5,4.2,30.25,South,172,1.0,3.0,75,0.00,,,0.00,VWS V14.01,2013-02-02 03:57:00,
2013-02-01 22:58:00,10.5,4.2,30.25,South,172,1.0,3.0,75,0.00,,,0.00,VWS V14.01,2013-02-02 03:58:00,
2013-02-01 22:59:00,10.5,4.2,30.25,South,172,2.0,3.0,75,0.00,,,0.00,VWS V14.01,2013-02-02 03:59:00,
2013-02-01 23:00:00,10.6,4.2,30.25,South,173,1.0,3.0,75,0.00,,,0.00,VWS V14.01,2013-02-02 04:00:00,
2013-02-01 23:01:00,10.6,4.2,30.25,South,171,0.0,2.0,75,0.00,,,0.00,VWS V14.01,2013-02-02 04:01:00,
2013-02-01 23:02:00,10.6,4.2,30.25,South,171,2.0,2.0,75,0.00,,,0.00,VWS V14.01,2013-02-02 04:02:00,
2013-02-01 23:03:00,10.6,4.2,30.25,South,171,1.0,2.0,75,0.00,,,0.00,VWS V14.01,2013-02-02 04:03:00,
2013-02-01 23:04:00,10.7,4.3,30.25,SSE,163,3.0,3.0,75,0.00,,,0.00,VWS V14.01,2013-02-02 04:04:00,
2013-02-01 23:05:00,10.7,4.3,30.25,SSE,163,1.0,3.0,75,0.00,,,0.00,VWS V14.01,2013-02-02 04:05:00,
2013-02-01 23:06:00,10.7,4.3,30.24,SSE,163,1.0,3.0,75,0.00,,,0.00,VWS V14.01,2013-02-02 04:06:00,
2013-02-01 23:07:00,10.7,4.3,30.24,SSE,163,1.0,3.0,75,0.00,,,0.00,VWS V14.01,2013-02-02 04:07:00,
2013-02-01 23:08:00,10.8,4.4,30.25,SSE,163,1.0,3.0,75,0.00,,,0.00,VWS V14.01,2013-02-02 04:08:00,
2013-02-01 23:09:00,10.8,4.7,30.24,South,172,0.0,3.0,76,0.00,,,0.00,VWS V14.01,2013-02-02 04:09:00,
2013-02-01 23:10:00,10.8,4.7,30.24,South,172,1.0,3.0,76,0.00,,,0.00,VWS V14.01,2013-02-02 04:10:00,
2013-02-01 23:11:00,10.8,4.7,30.24,South,172,2.0,3.0,76,0.00,,,0.00,VWS V14.01,2013-02-02 04:11:00,
2013-02-01 23:12:00,10.9,4.8,30.24,South,172,3.0,3.0,76,0.00,,,0.00,VWS V14.01,2013-02-02 04:12:00,
2013-02-01 23:13:00,10.9,4.8,30.24,South,172,0.0,3.0,76,0.00,,,0.00,VWS V14.01,2013-02-02 04:13:00,
2013-02-01 23:14:00,10.9,4.8,30.24,South,172,1.0,3.0,76,0.00,,,0.00,VWS V14.01,2013-02-02 04:14:00,
2013-02-01 23:15:00,10.9,4.8,30.24,South,172,1.0,3.0,76,0.00,,,0.00,VWS V14.01,2013-02-02 04:15:00,
2013-02-01 23:16:00,10.9,4.8,30.24,South,172,1.0,3.0,76,0.00,,,0.00,VWS V14.01,2013-02-02 04:16:00,
2013-02-01 23:17:00,11.0,4.9,30.25,South,172,0.0,3.0,76,0.00,,,0.00,VWS V14.01,2013-02-02 04:17:00,
2013-02-01 23:18:00,11.0,4.9,30.24,South,172,1.0,3.0,76,0.00,,,0.00,VWS V14.01,2013-02-02 04:18:00,
2013-02-01 23:19:00,11.0,4.6,30.24,South,172,1.0,3.0,75,0.00,,,0.00,VWS V14.01,2013-02-02 04:19:00,
2013-02-01 23:20:00,11.0,4.6,30.24,South,172,1.0,3.0,75,0.00,,,0.00,VWS V14.01,2013-02-02 04:20:00,
2013-02-01 23:21:00,11.0,4.6,30.24,South,172,0.0,3.0,75,0.00,,,0.00,VWS V14.01,2013-02-02 04:21:00,
2013-02-01 23:22:00,11.0,4.6,30.24,South,172,3.0,3.0,75,0.00,,,0.00,VWS V14.01,2013-02-02 04:22:00,
2013-02-01 23:23:00,11.1,4.7,30.24,South,172,1.0,3.0,75,0.00,,,0.00,VWS V14.01,2013-02-02 04:23:00,
2013-02-01 23:24:00,11.1,4.7,30.24,South,172,0.0,3.0,75,0.00,,,0.00,VWS V14.01,2013-02-02 04:24:00,
2013-02-01 23:25:00,11.1,4.7,30.24,South,173,1.0,3.0,75,0.00,,,0.00,VWS V14.01,2013-02-02 04:25:00,
2013-02-01 23:26:00,11.2,4.8,30.24,South,173,0.0,3.0,75,0.00,,,0.00,VWS V14.01,2013-02-02 04:26:00,
2013-02-01 23:27:00,11.2,5.1,30.24,South,173,0.0,3.0,76,0.00,,,0.00,VWS V14.01,2013-02-02 04:27:00,
2013-02-01 23:28:00,11.2,5.1,30.24,South,173,0.0,3.0,76,0.00,,,0.00,VWS V14.01,2013-02-02 04:28:00,
2013-02-01 23:29:00,11.2,5.1,30.24,South,173,1.0,3.0,76,0.00,,,0.00,VWS V14.01,2013-02-02 04:29:00,
2013-02-01 23:30:00,11.2,5.1,30.24,South,173,1.0,3.0,76,0.00,,,0.00,VWS V14.01,2013-02-02 04:30:00,
2013-02-01 23:31:00,11.2,4.8,30.24,South,173,1.0,2.0,75,0.00,,,0.00,VWS V14.01,2013-02-02 04:31:00,
2013-02-01 23:32:00,11.3,5.2,30.24,South,172,1.0,3.0,76,0.00,,,0.00,VWS V14.01,2013-02-02 04:32:00,
2013-02-01 23:33:00,11.3,4.9,30.24,South,172,0.0,3.0,75,0.00,,,0.00,VWS V14.01,2013-02-02 04:33:00,
2013-02-01 23:34:00,11.3,4.9,30.24,South,173,1.0,3.0,75,0.00,,,0.00,VWS V14.01,2013-02-02 04:34:00,
2013-02-01 23:35:00,11.3,5.2,30.24,South,174,1.0,3.0,76,0.00,,,0.00,VWS V14.01,2013-02-02 04:35:00,
2013-02-01 23:36:00,11.4,5.3,30.24,South,173,2.0,3.0,76,0.00,,,0.00,VWS V14.01,2013-02-02 04:36:00,
2013-02-01 23:37:00,11.4,5.3,30.24,South,173,0.0,3.0,76,0.00,,,0.00,VWS V14.01,2013-02-02 04:37:00,
2013-02-01 23:38:00,11.4,5.3,30.24,South,174,2.0,3.0,76,0.00,,,0.00,VWS V14.01,2013-02-02 04:38:00,
2013-02-01 23:39:00,11.4,5.3,30.24,South,174,1.0,3.0,76,0.00,,,0.00,VWS V14.01,2013-02-02 04:39:00,
2013-02-01 23:40:00,11.4,5.0,30.24,South,174,2.0,3.0,75,0.00,,,0.00,VWS V14.01,2013-02-02 04:40:00,
2013-02-01 23:41:00,11.4,5.0,30.24,South,174,0.0,3.0,75,0.00,,,0.00,VWS V14.01,2013-02-02 04:41:00,
2013-02-01 23:42:00,11.4,5.3,30.24,South,174,1.0,3.0,76,0.00,,,0.00,VWS V14.01,2013-02-02 04:42:00,
2013-02-01 23:43:00,11.4,5.3,30.24,South,174,2.0,3.0,76,0.00,,,0.00,VWS V14.01,2013-02-02 04:43:00,
2013-02-01 23:44:00,11.5,5.4,30.24,South,179,2.0,3.0,76,0.00,,,0.00,VWS V14.01,2013-02-02 04:44:00,
2013-02-01 23:45:00,11.5,5.4,30.23,South,179,2.0,3.0,76,0.00,,,0.00,VWS V14.01,2013-02-02 04:45:00,
2013-02-01 23:46:00,11.5,5.4,30.23,South,179,3.0,4.0,76,0.00,,,0.00,VWS V14.01,2013-02-02 04:46:00,
2013-02-01 23:47:00,11.5,5.4,30.23,South,179,2.0,4.0,76,0.00,,,0.00,VWS V14.01,2013-02-02 04:47:00,
2013-02-01 23:48:00,11.5,5.1,30.23,South,179,2.0,4.0,75,0.00,,,0.00,VWS V14.01,2013-02-02 04:48:00,
2013-02-01 23:49:00,11.5,5.1,30.23,South,179,0.0,4.0,75,0.00,,,0.00,VWS V14.01,2013-02-02 04:49:00,
2013-02-01 23:50:00,11.5,5.1,30.23,South,179,1.0,4.0,75,0.00,,,0.00,VWS V14.01,2013-02-02 04:50:00,
2013-02-01 23:51:00,11.5,5.1,30.23,South,179,2.0,4.0,75,0.00,,,0.00,VWS V14.01,2013-02-02 04:51:00,
2013-02-01 23:52:00,11.5,5.1,30.23,South,179,2.0,4.0,75,0.00,,,0.00,VWS V14.01,2013-02-02 04:52:00,
2013-02-01 23:53:00,11.5,5.1,30.23,South,178,1.0,4.0,75,0.00,,,0.00,VWS V14.01,2013-02-02 04:53:00,
2013-02-01 23:54:00,11.5,5.1,30.23,South,178,2.0,4.0,75,0.00,,,0.00,VWS V14.01,2013-02-02 04:54:00,
2013-02-01 23:55:00,11.5,5.1,30.23,South,178,0.0,4.0,75,0.00,,,0.00,VWS V14.01,2013-02-02 04:55:00,
2013-02-01 23:56:00,11.6,5.2,30.23,South,178,1.0,4.0,75,0.00,,,0.00,VWS V14.01,2013-02-02 04:56:00,
2013-02-01 23:57:00,11.5,5.1,30.23,South,178,0.0,4.0,75,0.00,,,0.00,VWS V14.01,2013-02-02 04:57:00,
2013-02-01 23:58:00,11.5,5.1,30.23,South,180,2.0,4.0,75,0.00,,,0.00,VWS V14.01,2013-02-02 04:58:00,
2013-02-01 23:59:00,11.5,5.1,30.23,South,180,1.0,4.0,75,0.00,,,0.00,VWS V14.01,2013-02-02 04:59:00,